createdAt,value
2022-08-07T00:03:28.312Z,102510.34
2022-08-07T00:13:58.488Z,102502.41
2022-08-07T00:24:20.960Z,102499.38
2022-08-07T00:34:49.180Z,102491.34
2022-08-07T00:45:16.130Z,102493.59
2022-08-07T00:56:00.797Z,102483.97
2022-08-07T01:06:21.945Z,102485.00
2022-08-07T01:16:47.345Z,102479.38
2022-08-07T01:27:19.528Z,102480.38
2022-08-07T01:37:41.937Z,102475.94
2022-08-07T01:48:19.303Z,102476.63
2022-08-07T01:58:54.720Z,102464.88
2022-08-07T02:09:33.526Z,102466.91
2022-08-07T02:20:10.044Z,102453.66
2022-08-07T02:30:40.722Z,102454.38
2022-08-07T02:41:04.313Z,102441.97
2022-08-07T02:51:49.773Z,102450.56
2022-08-07T03:02:13.197Z,102441.72
2022-08-07T03:12:37.352Z,102442.00
2022-08-07T03:22:59.696Z,102449.81
2022-08-07T03:33:21.322Z,102450.84
2022-08-07T03:43:56.752Z,102451.66
2022-08-07T03:54:35.488Z,102448.88
2022-08-07T04:05:00.856Z,102449.75
2022-08-07T04:15:23.964Z,102459.22
2022-08-07T04:25:46.278Z,102457.97
2022-08-07T04:36:10.961Z,102466.97
2022-08-07T04:46:39.977Z,102470.81
2022-08-07T04:58:26.182Z,102478.44
2022-08-07T05:08:45.766Z,102473.66
2022-08-07T05:19:13.244Z,102473.50
2022-08-07T05:29:50.994Z,102482.38
2022-08-07T05:40:18.702Z,102491.56
2022-08-07T05:50:42.961Z,102484.47
2022-08-07T06:01:11.104Z,102482.50
2022-08-07T06:11:34.490Z,102493.09
2022-08-07T06:22:11.725Z,102494.19
2022-08-07T06:32:38.073Z,102500.50
2022-08-07T06:43:03.861Z,102496.53
2022-08-07T06:55:28.226Z,102482.28
2022-08-07T07:04:32.037Z,102480.69
2022-08-07T07:15:03.869Z,102485.56
2022-08-07T07:26:34.226Z,102491.91
2022-08-07T07:36:13.476Z,102495.09
2022-08-07T07:46:54.421Z,102494.34
2022-08-07T07:57:43.719Z,102486.00
2022-08-07T08:08:03.819Z,102471.56
2022-08-07T08:18:27.599Z,102461.31
2022-08-07T08:28:51.877Z,102453.00
2022-08-07T08:39:15.461Z,102452.78
2022-08-07T08:50:02.637Z,102448.63
2022-08-07T09:00:30.314Z,102441.50
2022-08-07T09:11:24.673Z,102447.75
2022-08-07T09:22:39.399Z,102432.25
2022-08-07T09:32:53.792Z,102432.63
2022-08-07T09:44:03.092Z,102429.72
2022-08-07T09:54:27.196Z,102410.19
2022-08-07T10:05:12.601Z,102393.91
2022-08-07T10:15:57.371Z,102394.88
2022-08-07T10:26:52.978Z,102384.41
2022-08-07T10:37:59.960Z,102385.38
2022-08-07T10:48:25.085Z,102370.91
2022-08-07T10:59:13.618Z,102359.66
2022-08-07T11:10:07.358Z,102352.69
2022-08-07T11:20:43.602Z,102339.28
2022-08-07T11:31:38.905Z,102325.97
2022-08-07T11:42:18.615Z,102312.47
2022-08-07T11:53:04.989Z,102304.09
2022-08-07T12:03:44.588Z,102303.88
2022-08-07T12:14:19.142Z,102289.59
2022-08-07T12:26:06.082Z,102279.06
2022-08-07T12:36:05.693Z,102280.69
2022-08-07T12:46:40.800Z,102275.84
2022-08-07T12:57:09.604Z,102266.59
2022-08-07T13:08:12.494Z,102269.94
2022-08-07T13:18:49.157Z,102263.69
2022-08-07T13:29:21.698Z,102257.38
2022-08-07T13:40:35.883Z,102241.19
2022-08-07T13:50:45.319Z,102232.47
2022-08-07T14:01:20.390Z,102236.09
2022-08-07T14:11:53.505Z,102219.88
2022-08-07T14:22:34.692Z,102217.00
2022-08-07T14:33:00.017Z,102215.63
2022-08-07T14:43:57.987Z,102215.69
2022-08-07T14:54:31.210Z,102206.94
2022-08-07T15:04:52.952Z,102199.50
2022-08-07T15:15:23.580Z,102199.84
2022-08-07T15:25:47.014Z,102192.97
2022-08-07T15:36:11.637Z,102175.69
2022-08-07T15:46:39.173Z,102167.69
2022-08-07T15:57:40.270Z,102163.41
2022-08-07T16:08:30.695Z,102159.50
2022-08-07T16:19:12.282Z,102144.63
2022-08-07T16:30:11.167Z,102149.38
2022-08-07T16:41:07.003Z,102144.09
2022-08-07T16:52:52.110Z,102141.84
2022-08-07T17:03:57.754Z,102153.94
2022-08-07T17:14:41.887Z,102139.69
2022-08-07T17:25:15.090Z,102142.09
2022-08-07T17:35:54.767Z,102134.75
2022-08-07T17:46:22.727Z,102152.09
2022-08-07T17:57:18.826Z,102140.13
2022-08-07T18:07:44.933Z,102136.59
2022-08-07T18:18:46.372Z,102144.41
2022-08-07T18:30:05.929Z,102163.53
2022-08-07T18:40:08.173Z,102175.00
2022-08-07T18:50:44.123Z,102193.19
2022-08-07T19:02:16.992Z,102200.94
2022-08-07T19:12:53.668Z,102210.06
2022-08-07T19:23:58.178Z,102220.22
2022-08-07T19:34:33.958Z,102222.75
2022-08-07T19:45:08.698Z,102239.50
2022-08-07T19:55:57.574Z,102247.06
2022-08-07T20:06:15.435Z,102256.50
2022-08-07T20:16:54.315Z,102254.81
2022-08-07T20:27:46.066Z,102248.78
2022-08-07T20:38:06.378Z,102258.91
2022-08-07T20:48:30.891Z,102258.31
2022-08-07T20:59:01.418Z,102260.72
2022-08-07T21:09:28.601Z,102253.22
2022-08-07T21:20:04.869Z,102259.97
2022-08-07T21:30:56.790Z,102261.13
2022-08-07T21:41:24.532Z,102271.66
2022-08-07T21:52:16.679Z,102270.97
2022-08-07T22:02:53.987Z,102266.38
2022-08-07T22:13:16.584Z,102278.13
2022-08-07T22:24:00.161Z,102288.09
2022-08-07T22:34:35.491Z,102280.28
2022-08-07T22:45:02.478Z,102287.66
2022-08-07T22:55:36.764Z,102285.34
2022-08-07T23:06:23.876Z,102287.47
2022-08-07T23:16:54.971Z,102285.16
2022-08-07T23:28:22.142Z,102288.69
2022-08-07T23:38:55.778Z,102289.63
2022-08-07T23:49:42.201Z,102285.44
